Time;durP1;ratioP1;P1;durP2;ratioP2;P2;SDS_P1;SDS_P2;PMS_P1;PMS_P2;Temp;Humidity;BMP_temperature;BMP_pressure;BME280_temperature;BME280_humidity;BME280_pressure;Samples;Min_cycle;Max_cycle;Signal;HPM_P1;HPM_P2
2023/01/04 00:02:18;;;;;;;;;;;;;;;;;;5099103;28;1340;-70
2023/01/04 00:04:44;;;;;;;;;;;;;;;;;;5117777;28;907;-70
2023/01/04 00:07:09;;;;;;;;;;;;;;;;;;5099808;28;1050;-70
2023/01/04 00:09:37;;;;;;;;;;;;;;;;;;5082050;28;1906;-70
2023/01/04 00:12:02;;;;;;;;;;;;;;;;;;5099066;28;1231;-69
2023/01/04 00:14:27;;;;;;;;;;;;;;;;;;5082552;28;1328;-70
2023/01/04 00:16:52;;;;;;;;;;;;;;;;;;5082056;28;1179;-70
2023/01/04 00:19:18;;;;;;;;;;;;;;;;;;5117976;28;911;-70
2023/01/04 00:21:43;;;;;;;;;;;;;;;;;;5099163;28;999;-70
2023/01/04 00:24:09;;;;;;;;;;;;;;;;;;5098961;28;1265;-70
2023/01/04 00:26:34;;;;;;;;;;;;;;;;;;5099427;28;824;-70
2023/01/04 00:29:04;;;;;;;;;;;;;;;;;;5117427;28;1963;-70
2023/01/04 00:31:30;;;;;;;;;;;;;;;;;;5099394;28;1216;-70
2023/01/04 00:33:56;;;;;;;;;;;;;;;;;;5099272;28;1456;-70
2023/01/04 00:36:21;;;;;;;;;;;;;;;;;;5099451;28;1317;-70
2023/01/04 00:38:47;;;;;;;;;;;;;;;;;;5117856;28;821;-72
2023/01/04 00:41:13;;;;;;;;;;;;;;;;;;5099160;28;829;-71
2023/01/04 00:43:38;;;;;;;;;;;;;;;;;;5097420;28;1408;-71
2023/01/04 00:46:05;;;;;;;;;;;;;;;;;;5096144;28;1111;-71
2023/01/04 00:48:31;;;;;;;;;;;;;;;;;;5096554;28;1340;-71
2023/01/04 00:50:57;;;;;;;;;;;;;;;;;;5095799;28;1961;-71
2023/01/04 00:53:22;;;;;;;;;;;;;;;;;;5113982;28;841;-72
2023/01/04 00:55:47;;;;;;;;;;;;;;;;;;5095851;28;1249;-71
2023/01/04 00:58:12;;;;;;;;;;;;;;;;;;5113343;28;809;-71
2023/01/04 01:00:38;;;;;;;;;;;;;;;;;;5114612;28;884;-71
2023/01/04 01:03:04;;;;;;;;;;;;;;;;;;5095057;28;1214;-71
2023/01/04 01:05:29;;;;;;;;;;;;;;;;;;5095513;28;1356;-71
2023/01/04 01:07:55;;;;;;;;;;;;;;;;;;5077943;28;1369;-71
2023/01/04 01:10:20;;;;;;;;;;;;;;;;;;5095441;28;1902;-71
2023/01/04 01:12:45;;;;;;;;;;;;;;;;;;5095807;28;1296;-72
2023/01/04 01:15:11;;;;;;;;;;;;;;;;;;5113303;28;786;-71
2023/01/04 01:17:36;;;;;;;;;;;;;;;;;;5078355;28;1292;-71
2023/01/04 01:20:03;;;;;;;;;;;;;;;;;;5094440;28;1353;-71
2023/01/04 01:22:29;;;;;;;;;;;;;;;;;;5094855;28;1170;-71
2023/01/04 01:24:54;;;;;;;;;;;;;;;;;;5112799;28;940;-71
2023/01/04 01:27:19;;;;;;;;;;;;;;;;;;5094707;28;1306;-71
2023/01/04 01:29:44;;;;;;;;;;;;;;;;;;5077667;28;1894;-71
2023/01/04 01:32:10;;;;;;;;;;;;;;;;;;5094432;28;1210;-71
2023/01/04 01:34:35;;;;;;;;;;;;;;;;;;5094755;28;1204;-71
2023/01/04 01:37:01;;;;;;;;;;;;;;;;;;5077430;28;1306;-71
2023/01/04 01:39:26;;;;;;;;;;;;;;;;;;5077837;28;1412;-69
2023/01/04 01:41:52;;;;;;;;;;;;;;;;;;5112947;28;966;-72
2023/01/04 01:44:36;;;;;;;;;;;;;;;;;;5112655;28;876;-72
2023/01/04 01:47:01;;;;;;;;;;;;;;;;;;5122571;27;1135;-72
2023/01/04 01:49:31;;;;;;;;;;;;;;;;;;5102232;27;1951;-72
2023/01/04 01:51:58;;;;;;;;;;;;;;;;;;5093066;28;1211;-72
2023/01/04 01:54:33;;;;;;;;;;;;;;;;;;5105477;27;1198;-72
2023/01/04 01:56:59;;;;;;;;;;;;;;;;;;5113929;27;1171;-72
2023/01/04 01:59:26;;;;;;;;;;;;;;;;;;5115252;27;1389;-72
2023/01/04 02:01:51;;;;;;;;;;;;;;;;;;5133404;27;1022;-71
2023/01/04 02:04:17;;;;;;;;;;;;;;;;;;5114727;27;1178;-72
2023/01/04 02:06:47;;;;;;;;;;;;;;;;;;5133331;27;820;-70
2023/01/04 02:09:13;;;;;;;;;;;;;;;;;;5132507;27;1889;-69
2023/01/04 02:11:38;;;;;;;;;;;;;;;;;;5098178;27;1156;-70
2023/01/04 02:16:55;;;;;;;;;;;;;;;;;;5133146;27;720;-70
2023/01/04 02:19:20;;;;;;;;;;;;;;;;;;5113954;27;1306;-70
2023/01/04 02:22:00;;;;;;;;;;;;;;;;;;5132794;27;888;-70
2023/01/04 02:24:32;;;;;;;;;;;;;;;;;;5132904;27;891;-70
2023/01/04 02:27:09;;;;;;;;;;;;;;;;;;5114063;27;1296;-70
2023/01/04 02:29:34;;;;;;;;;;;;;;;;;;5132848;27;1953;-70
2023/01/04 02:32:07;;;;;;;;;;;;;;;;;;5113754;27;1278;-70
2023/01/04 02:34:53;;;;;;;;;;;;;;;;;;5132297;27;802;-70
2023/01/04 02:37:27;;;;;;;;;;;;;;;;;;5131396;27;964;-70
2023/01/04 02:40:06;;;;;;;;;;;;;;;;;;5113221;27;1478;-70
2023/01/04 02:45:25;;;;;;;;;;;;;;;;;;5132037;27;697;-70
2023/01/04 02:50:38;;;;;;;;;;;;;;;;;;5116432;27;1902;-70
2023/01/04 02:53:04;;;;;;;;;;;;;;;;;;5131707;27;771;-70
2023/01/04 02:55:33;;;;;;;;;;;;;;;;;;5113218;27;1326;-69
2023/01/04 02:58:06;;;;;;;;;;;;;;;;;;5113632;27;1214;-70
2023/01/04 03:06:14;;;;;;;;;;;;;;;;;;5131850;27;923;-70
2023/01/04 03:06:16;;;;;;;;;;;;;;;;;;5131228;27;625;-69
2023/01/04 03:08:50;;;;;;;;;;;;;;;;;;5113054;27;1436;-70
2023/01/04 03:14:14;;;;;;;;;;;;;;;;;;5131546;27;708;-70
2023/01/04 03:16:40;;;;;;;;;;;;;;;;;;5132148;27;781;-70
2023/01/04 03:19:08;;;;;;;;;;;;;;;;;;5112863;27;1248;-69
2023/01/04 03:21:34;;;;;;;;;;;;;;;;;;5113299;27;1071;-70
2023/01/04 03:35:27;;;;;;;;;;;;;;;;;;5132062;28;742;-69
2023/01/04 03:49:42;;;;;;;;;;;;;;;;;;5131484;28;1909;-69
2023/01/04 03:52:09;;;;;;;;;;;;;;;;;;5131555;28;892;-69
2023/01/04 03:54:38;;;;;;;;;;;;;;;;;;5112533;28;1333;-72
2023/01/04 03:57:04;;;;;;;;;;;;;;;;;;5114357;28;1231;-68
2023/01/04 03:59:29;;;;;;;;;;;;;;;;;;5115921;28;813;-69
2023/01/04 04:01:55;;;;;;;;;;;;;;;;;;5116266;28;1365;-69
2023/01/04 04:09:48;;;;;;;;;;;;;;;;;;5132357;28;1910;-69
2023/01/04 04:12:14;;;;;;;;;;;;;;;;;;5113869;28;1070;-69
2023/01/04 04:14:39;;;;;;;;;;;;;;;;;;5113451;28;1245;-70
2023/01/04 04:17:04;;;;;;;;;;;;;;;;;;5112697;28;758;-69
2023/01/04 04:19:29;;;;;;;;;;;;;;;;;;5114914;27;1276;-70
2023/01/04 04:21:55;;;;;;;;;;;;;;;;;;5116550;27;1085;-70
2023/01/04 04:24:23;;;;;;;;;;;;;;;;;;5116254;27;898;-70
2023/01/04 04:26:48;;;;;;;;;;;;;;;;;;5135088;27;848;-70
2023/01/04 04:29:14;;;;;;;;;;;;;;;;;;5099353;27;1948;-69
2023/01/04 04:31:39;;;;;;;;;;;;;;;;;;5116493;27;1418;-70
2023/01/04 04:34:05;;;;;;;;;;;;;;;;;;5116654;27;1231;-70
2023/01/04 04:36:30;;;;;;;;;;;;;;;;;;5134847;27;820;-71
2023/01/04 04:38:55;;;;;;;;;;;;;;;;;;5134761;27;962;-71
2023/01/04 04:41:40;;;;;;;;;;;;;;;;;;5116036;27;993;-70
2023/01/04 04:44:08;;;;;;;;;;;;;;;;;;5119087;27;860;-70
2023/01/04 04:46:33;;;;;;;;;;;;;;;;;;5116122;27;1119;-70
2023/01/04 04:48:59;;;;;;;;;;;;;;;;;;5134813;27;879;-70
2023/01/04 04:51:24;;;;;;;;;;;;;;;;;;5098888;27;1918;-70
2023/01/04 04:53:49;;;;;;;;;;;;;;;;;;5099389;27;1329;-71
2023/01/04 04:56:15;;;;;;;;;;;;;;;;;;5099252;27;1211;-70
2023/01/04 04:58:40;;;;;;;;;;;;;;;;;;5132518;27;1226;-72
2023/01/04 05:01:06;;;;;;;;;;;;;;;;;;5080468;27;1400;-70
2023/01/04 05:03:31;;;;;;;;;;;;;;;;;;5131536;27;1195;-72
2023/01/04 05:05:57;;;;;;;;;;;;;;;;;;5088506;28;1155;-72
2023/01/04 05:08:22;;;;;;;;;;;;;;;;;;5095233;28;1372;-70
2023/01/04 05:10:47;;;;;;;;;;;;;;;;;;5114502;28;1934;-72
2023/01/04 05:13:12;;;;;;;;;;;;;;;;;;5079292;28;1327;-71
2023/01/04 05:15:39;;;;;;;;;;;;;;;;;;5095902;28;1019;-71
2023/01/04 05:18:05;;;;;;;;;;;;;;;;;;5113583;28;812;-71
2023/01/04 05:20:30;;;;;;;;;;;;;;;;;;5113723;28;967;-71
2023/01/04 05:22:55;;;;;;;;;;;;;;;;;;5078325;28;1180;-71
2023/01/04 05:25:21;;;;;;;;;;;;;;;;;;5094577;28;1185;-71
2023/01/04 05:27:46;;;;;;;;;;;;;;;;;;5113834;28;1062;-71
2023/01/04 05:32:56;;;;;;;;;;;;;;;;;;5113581;28;1175;-71
2023/01/04 05:35:22;;;;;;;;;;;;;;;;;;5095148;28;1285;-71
2023/01/04 05:37:47;;;;;;;;;;;;;;;;;;5114607;27;1219;-71
2023/01/04 05:40:12;;;;;;;;;;;;;;;;;;5083448;28;1136;-71
2023/01/04 05:42:38;;;;;;;;;;;;;;;;;;5094182;28;1226;-71
2023/01/04 05:45:03;;;;;;;;;;;;;;;;;;5113891;28;816;-71
2023/01/04 05:47:29;;;;;;;;;;;;;;;;;;5078745;28;1199;-71
2023/01/04 05:49:54;;;;;;;;;;;;;;;;;;5078437;28;1959;-71
2023/01/04 05:52:23;;;;;;;;;;;;;;;;;;5113564;28;867;-71
2023/01/04 05:54:48;;;;;;;;;;;;;;;;;;5095212;28;1026;-71
2023/01/04 05:57:14;;;;;;;;;;;;;;;;;;5078516;28;1312;-71
2023/01/04 05:59:39;;;;;;;;;;;;;;;;;;5094757;28;1318;-71
2023/01/04 06:02:05;;;;;;;;;;;;;;;;;;5113494;28;951;-71
2023/01/04 06:04:30;;;;;;;;;;;;;;;;;;5094396;28;1329;-71
2023/01/04 06:06:55;;;;;;;;;;;;;;;;;;5113213;28;856;-71
2023/01/04 06:09:21;;;;;;;;;;;;;;;;;;5112872;28;1901;-71
2023/01/04 06:11:46;;;;;;;;;;;;;;;;;;5077920;28;1321;-71
2023/01/04 06:14:11;;;;;;;;;;;;;;;;;;5112954;28;837;-71
2023/01/04 06:16:37;;;;;;;;;;;;;;;;;;5094952;28;1198;-71
2023/01/04 06:19:02;;;;;;;;;;;;;;;;;;5094642;28;1210;-71
2023/01/04 06:21:27;;;;;;;;;;;;;;;;;;5112796;28;952;-70
2023/01/04 06:23:53;;;;;;;;;;;;;;;;;;5094814;28;1295;-71
2023/01/04 06:26:18;;;;;;;;;;;;;;;;;;5094733;28;1238;-71
2023/01/04 06:28:43;;;;;;;;;;;;;;;;;;5094488;28;1140;-71
2023/01/04 06:31:09;;;;;;;;;;;;;;;;;;5094449;28;1879;-71
2023/01/04 06:33:35;;;;;;;;;;;;;;;;;;5094364;28;1215;-71
2023/01/04 06:36:00;;;;;;;;;;;;;;;;;;5113181;28;928;-71
2023/01/04 06:38:25;;;;;;;;;;;;;;;;;;5094144;28;1214;-71
2023/01/04 06:40:51;;;;;;;;;;;;;;;;;;5093847;28;995;-71
2023/01/04 06:43:16;;;;;;;;;;;;;;;;;;5111613;28;991;-71
2023/01/04 06:45:41;;;;;;;;;;;;;;;;;;5094197;28;1218;-71
2023/01/04 06:48:07;;;;;;;;;;;;;;;;;;5094285;28;1392;-71
2023/01/04 06:50:32;;;;;;;;;;;;;;;;;;5093676;28;1959;-71
2023/01/04 06:52:57;;;;;;;;;;;;;;;;;;5094001;28;1288;-71
2023/01/04 06:55:22;;;;;;;;;;;;;;;;;;5093617;28;896;-70
2023/01/04 06:57:48;;;;;;;;;;;;;;;;;;5093209;28;1420;-71
2023/01/04 07:00:13;;;;;;;;;;;;;;;;;;5076701;28;1248;-71
2023/01/04 07:02:39;;;;;;;;;;;;;;;;;;5076820;28;1187;-71
2023/01/04 07:05:04;;;;;;;;;;;;;;;;;;5076808;28;1136;-71
2023/01/04 07:07:31;;;;;;;;;;;;;;;;;;5111392;28;908;-71
2023/01/04 07:09:56;;;;;;;;;;;;;;;;;;5111726;28;1898;-71
2023/01/04 07:12:21;;;;;;;;;;;;;;;;;;5093270;28;837;-70
2023/01/04 07:14:47;;;;;;;;;;;;;;;;;;5111415;28;934;-71
2023/01/04 07:17:12;;;;;;;;;;;;;;;;;;5076538;28;1113;-70
2023/01/04 07:19:37;;;;;;;;;;;;;;;;;;5111780;28;925;-70
2023/01/04 07:22:02;;;;;;;;;;;;;;;;;;5111272;28;992;-71
2023/01/04 07:24:28;;;;;;;;;;;;;;;;;;5075970;28;1270;-71
2023/01/04 07:26:53;;;;;;;;;;;;;;;;;;5092794;28;1290;-71
2023/01/04 07:29:18;;;;;;;;;;;;;;;;;;5111275;28;1902;-73
2023/01/04 07:31:48;;;;;;;;;;;;;;;;;;5087576;28;1262;-70
2023/01/04 07:34:13;;;;;;;;;;;;;;;;;;5073318;28;1149;-70
2023/01/04 07:36:39;;;;;;;;;;;;;;;;;;5073638;28;868;-70
2023/01/04 07:39:05;;;;;;;;;;;;;;;;;;5091341;28;782;-70
2023/01/04 07:41:30;;;;;;;;;;;;;;;;;;5056871;28;1227;-70
2023/01/04 07:43:55;;;;;;;;;;;;;;;;;;5073305;28;889;-70
2023/01/04 07:46:23;;;;;;;;;;;;;;;;;;5072913;28;1243;-70
2023/01/04 07:48:48;;;;;;;;;;;;;;;;;;5073281;28;880;-71
2023/01/04 07:51:13;;;;;;;;;;;;;;;;;;5072884;28;1910;-70
2023/01/04 07:53:39;;;;;;;;;;;;;;;;;;5076137;28;790;-70
2023/01/04 07:56:04;;;;;;;;;;;;;;;;;;5095827;28;892;-70
2023/01/04 07:58:31;;;;;;;;;;;;;;;;;;5095712;28;990;-70
2023/01/04 08:00:56;;;;;;;;;;;;;;;;;;5077048;28;1226;-70
2023/01/04 08:03:22;;;;;;;;;;;;;;;;;;5077115;28;1365;-70
2023/01/04 08:05:47;;;;;;;;;;;;;;;;;;5095553;28;825;-68
2023/01/04 08:08:12;;;;;;;;;;;;;;;;;;5077057;28;1160;-70
2023/01/04 08:10:37;;;;;;;;;;;;;;;;;;5076699;28;1909;-70
2023/01/04 08:13:06;;;;;;;;;;;;;;;;;;5077402;28;889;-70
2023/01/04 08:15:31;;;;;;;;;;;;;;;;;;5076426;28;1160;-70
2023/01/04 08:17:56;;;;;;;;;;;;;;;;;;5094797;28;950;-70
2023/01/04 08:20:22;;;;;;;;;;;;;;;;;;5059901;28;1176;-70
2023/01/04 08:22:47;;;;;;;;;;;;;;;;;;5094784;28;900;-70
2023/01/04 08:25:15;;;;;;;;;;;;;;;;;;5094199;28;1026;-70
2023/01/04 08:27:40;;;;;;;;;;;;;;;;;;5059251;28;1238;-71
2023/01/04 08:30:06;;;;;;;;;;;;;;;;;;5075853;28;1913;-70
2023/01/04 08:32:31;;;;;;;;;;;;;;;;;;5105895;28;1041;-70
2023/01/04 08:34:57;;;;;;;;;;;;;;;;;;5095947;28;991;-71
2023/01/04 08:37:22;;;;;;;;;;;;;;;;;;5114171;28;916;-70
2023/01/04 08:39:47;;;;;;;;;;;;;;;;;;5079222;28;1290;-70
2023/01/04 08:42:14;;;;;;;;;;;;;;;;;;5096188;28;837;-70
2023/01/04 08:44:39;;;;;;;;;;;;;;;;;;5114960;28;908;-70
2023/01/04 08:47:04;;;;;;;;;;;;;;;;;;5079382;28;1207;-70
2023/01/04 08:49:29;;;;;;;;;;;;;;;;;;5114129;28;2016;-70
2023/01/04 08:51:55;;;;;;;;;;;;;;;;;;5114419;28;892;-70
2023/01/04 08:54:21;;;;;;;;;;;;;;;;;;5114564;28;885;-70
2023/01/04 08:56:46;;;;;;;;;;;;;;;;;;5079078;28;1204;-70
2023/01/04 08:59:12;;;;;;;;;;;;;;;;;;5114441;28;884;-70
2023/01/04 09:01:41;;;;;;;;;;;;;;;;;;5096114;28;1305;-70
2023/01/04 09:04:07;;;;;;;;;;;;;;;;;;5078766;28;1001;-70
2023/01/04 09:06:33;;;;;;;;;;;;;;;;;;5095765;28;1175;-70
2023/01/04 09:08:58;;;;;;;;;;;;;;;;;;5113889;28;868;-70
2023/01/04 09:11:25;;;;;;;;;;;;;;;;;;5113649;28;1910;-70
2023/01/04 09:13:54;;;;;;;;;;;;;;;;;;5078784;28;1188;-68
2023/01/04 09:16:20;;;;;;;;;;;;;;;;;;5095702;28;1328;-68
2023/01/04 09:18:45;;;;;;;;;;;;;;;;;;5095620;28;1275;-67
2023/01/04 09:21:15;;;;;;;;;;;;;;;;;;5114061;28;974;-68
2023/01/04 09:23:40;;;;;;;;;;;;;;;;;;5114748;28;987;-67
2023/01/04 09:26:10;;;;;;;;;;;;;;;;;;5095900;28;1140;-67
2023/01/04 09:28:36;;;;;;;;;;;;;;;;;;5095255;28;1167;-67
2023/01/04 09:31:08;;;;;;;;;;;;;;;;;;5095556;28;1965;-67
2023/01/04 09:33:34;;;;;;;;;;;;;;;;;;5114056;28;840;-67
2023/01/04 09:36:01;;;;;;;;;;;;;;;;;;5113873;28;899;-67
2023/01/04 09:38:26;;;;;;;;;;;;;;;;;;5113894;28;829;-67
2023/01/04 09:40:57;;;;;;;;;;;;;;;;;;5113835;28;848;-68
2023/01/04 09:43:22;;;;;;;;;;;;;;;;;;5113680;28;824;-67
2023/01/04 09:45:51;;;;;;;;;;;;;;;;;;5113797;28;813;-68
2023/01/04 09:48:22;;;;;;;;;;;;;;;;;;5095299;28;1248;-67
2023/01/04 09:50:52;;;;;;;;;;;;;;;;;;5094615;28;2243;-68
2023/01/04 09:53:26;;;;;;;;;;;;;;;;;;5112639;28;821;-68
2023/01/04 09:55:54;;;;;;;;;;;;;;;;;;5094129;28;1254;-68
2023/01/04 09:58:31;;;;;;;;;;;;;;;;;;5112848;28;852;-67
2023/01/04 10:01:01;;;;;;;;;;;;;;;;;;5095006;28;1104;-67
2023/01/04 10:03:34;;;;;;;;;;;;;;;;;;5094286;28;1354;-67
2023/01/04 10:06:00;;;;;;;;;;;;;;;;;;5094591;28;1286;-67
2023/01/04 10:08:26;;;;;;;;;;;;;;;;;;5094420;28;1244;-67
2023/01/04 10:11:15;;;;;;;;;;;;;;;;;;5077533;28;1970;-67
2023/01/04 10:13:43;;;;;;;;;;;;;;;;;;5113226;28;953;-68
2023/01/04 10:16:21;;;;;;;;;;;;;;;;;;5111786;28;922;-68
2023/01/04 10:19:09;;;;;;;;;;;;;;;;;;5094802;28;1230;-68
2023/01/04 10:21:46;;;;;;;;;;;;;;;;;;5012603;28;1168;-68
2023/01/04 10:24:19;;;;;;;;;;;;;;;;;;5089786;28;1165;-67
2023/01/04 10:26:46;;;;;;;;;;;;;;;;;;5112400;28;829;-68
2023/01/04 10:29:25;;;;;;;;;;;;;;;;;;5094182;28;1238;-68
2023/01/04 10:31:57;;;;;;;;;;;;;;;;;;5112228;28;1049;-67
2023/01/04 10:34:37;;;;;;;;;;;;;;;;;;5093972;28;1297;-68
2023/01/04 10:37:09;;;;;;;;;;;;;;;;;;5093748;28;1383;-67
2023/01/04 10:39:35;;;;;;;;;;;;;;;;;;5093822;28;1393;-68
2023/01/04 10:42:19;;;;;;;;;;;;;;;;;;5093663;28;1591;-68
2023/01/04 10:45:02;;;;;;;;;;;;;;;;;;5094201;28;1234;-66
2023/01/04 10:47:42;;;;;;;;;;;;;;;;;;5091771;28;1337;-67
2023/01/04 10:50:15;;;;;;;;;;;;;;;;;;5111133;28;1913;-66
2023/01/04 10:52:44;;;;;;;;;;;;;;;;;;5111946;28;935;-66
2023/01/04 10:55:14;;;;;;;;;;;;;;;;;;5092792;28;1282;-66
2023/01/04 10:58:03;;;;;;;;;;;;;;;;;;5112009;28;829;-66
2023/01/04 11:00:42;;;;;;;;;;;;;;;;;;5111685;28;832;-66
2023/01/04 11:03:11;;;;;;;;;;;;;;;;;;5094980;28;1433;-66
2023/01/04 11:05:39;;;;;;;;;;;;;;;;;;5113262;28;888;-66
2023/01/04 11:08:09;;;;;;;;;;;;;;;;;;5094233;28;1171;-66
2023/01/04 11:10:34;;;;;;;;;;;;;;;;;;5094299;28;1964;-66
2023/01/04 11:13:00;;;;;;;;;;;;;;;;;;5093977;28;1203;-66
2023/01/04 11:15:25;;;;;;;;;;;;;;;;;;5093623;28;1528;-66
2023/01/04 11:17:51;;;;;;;;;;;;;;;;;;5094260;28;904;-67
2023/01/04 11:20:16;;;;;;;;;;;;;;;;;;5093528;28;1436;-66
2023/01/04 11:22:42;;;;;;;;;;;;;;;;;;5077468;28;1330;-66
2023/01/04 11:25:11;;;;;;;;;;;;;;;;;;5112278;28;904;-66
2023/01/04 11:28:03;;;;;;;;;;;;;;;;;;5093060;28;1781;-66
2023/01/04 11:30:31;;;;;;;;;;;;;;;;;;5062237;28;1979;-66
2023/01/04 11:33:15;;;;;;;;;;;;;;;;;;5077839;28;1378;-67
2023/01/04 11:35:42;;;;;;;;;;;;;;;;;;5092185;28;857;-66
2023/01/04 11:38:21;;;;;;;;;;;;;;;;;;5073435;28;1212;-66
2023/01/04 11:40:57;;;;;;;;;;;;;;;;;;5091584;28;849;-66
2023/01/04 11:43:24;;;;;;;;;;;;;;;;;;5072819;28;1121;-67
2023/01/04 11:45:53;;;;;;;;;;;;;;;;;;5091904;28;944;-66
2023/01/04 11:48:29;;;;;;;;;;;;;;;;;;5090898;28;840;-66
2023/01/04 11:50:55;;;;;;;;;;;;;;;;;;5072868;28;1914;-66
2023/01/04 11:53:20;;;;;;;;;;;;;;;;;;5073001;28;861;-66
2023/01/04 11:55:48;;;;;;;;;;;;;;;;;;5091805;28;884;-67
2023/01/04 11:58:15;;;;;;;;;;;;;;;;;;5072759;28;1007;-66
2023/01/04 12:00:51;;;;;;;;;;;;;;;;;;5073356;28;1191;-66
2023/01/04 12:03:19;;;;;;;;;;;;;;;;;;5091273;28;920;-66
2023/01/04 12:05:44;;;;;;;;;;;;;;;;;;5091382;28;951;-66
2023/01/04 12:08:25;;;;;;;;;;;;;;;;;;5073461;28;1156;-66
2023/01/04 12:10:51;;;;;;;;;;;;;;;;;;5091226;28;1968;-66
2023/01/04 12:13:19;;;;;;;;;;;;;;;;;;5073621;28;1173;-66
2023/01/04 12:15:48;;;;;;;;;;;;;;;;;;5092138;28;825;-66
2023/01/04 12:18:21;;;;;;;;;;;;;;;;;;5091628;28;841;-66
2023/01/04 12:20:46;;;;;;;;;;;;;;;;;;5074014;28;1180;-66
2023/01/04 12:23:12;;;;;;;;;;;;;;;;;;5091518;28;959;-66
2023/01/04 12:25:40;;;;;;;;;;;;;;;;;;5092190;28;912;-66
2023/01/04 12:28:06;;;;;;;;;;;;;;;;;;5091783;28;833;-66
2023/01/04 12:30:34;;;;;;;;;;;;;;;;;;5072623;28;1906;-66
2023/01/04 12:33:19;;;;;;;;;;;;;;;;;;5106650;28;1333;-66
2023/01/04 12:35:57;;;;;;;;;;;;;;;;;;5092879;28;1188;-68
2023/01/04 12:38:42;;;;;;;;;;;;;;;;;;5110766;28;908;-68
2023/01/04 12:41:07;;;;;;;;;;;;;;;;;;5096047;28;1223;-67
2023/01/04 12:43:37;;;;;;;;;;;;;;;;;;5097037;28;880;-69
2023/01/04 12:49:25;;;;;;;;;;;;;;;;;;5115176;28;612;-69
2023/01/04 12:52:08;;;;;;;;;;;;;;;;;;5096175;28;1906;-69
2023/01/04 12:54:47;;;;;;;;;;;;;;;;;;5095952;28;1390;-69
2023/01/04 12:57:16;;;;;;;;;;;;;;;;;;5114752;28;1015;-69
2023/01/04 12:59:53;;;;;;;;;;;;;;;;;;5115567;28;857;-67
2023/01/04 13:02:19;;;;;;;;;;;;;;;;;;5114157;28;848;-69
2023/01/04 13:04:44;;;;;;;;;;;;;;;;;;5114746;28;987;-69
2023/01/04 13:07:16;;;;;;;;;;;;;;;;;;5115531;28;761;-70
2023/01/04 13:09:45;;;;;;;;;;;;;;;;;;5114985;28;1969;-70
2023/01/04 13:12:34;;;;;;;;;;;;;;;;;;5095987;28;1153;-69
2023/01/04 13:15:05;;;;;;;;;;;;;;;;;;5114603;28;868;-69
2023/01/04 13:17:37;;;;;;;;;;;;;;;;;;5114113;28;915;-69
2023/01/04 13:20:12;;;;;;;;;;;;;;;;;;5095973;28;1314;-69
2023/01/04 13:22:37;;;;;;;;;;;;;;;;;;5095518;28;1177;-68
2023/01/04 13:25:05;;;;;;;;;;;;;;;;;;5114185;28;983;-69
2023/01/04 13:27:30;;;;;;;;;;;;;;;;;;5095687;28;891;-69
2023/01/04 13:29:56;;;;;;;;;;;;;;;;;;5114107;28;1910;-69
2023/01/04 13:32:28;;;;;;;;;;;;;;;;;;5113736;28;1182;-69
2023/01/04 13:34:55;;;;;;;;;;;;;;;;;;5096091;28;1449;-68
2023/01/04 13:37:36;;;;;;;;;;;;;;;;;;5114191;28;865;-68
2023/01/04 13:40:11;;;;;;;;;;;;;;;;;;5114140;28;880;-68
2023/01/04 13:42:39;;;;;;;;;;;;;;;;;;5095889;28;1319;-67
2023/01/04 13:45:20;;;;;;;;;;;;;;;;;;5114525;28;892;-69
2023/01/04 13:47:46;;;;;;;;;;;;;;;;;;5114660;28;844;-68
2023/01/04 13:50:30;;;;;;;;;;;;;;;;;;5096281;28;1968;-69
2023/01/04 13:52:55;;;;;;;;;;;;;;;;;;5096115;28;1064;-68
2023/01/04 13:55:29;;;;;;;;;;;;;;;;;;5095482;28;1179;-68
2023/01/04 13:58:17;;;;;;;;;;;;;;;;;;5114644;28;1295;-69
2023/01/04 14:00:42;;;;;;;;;;;;;;;;;;5084874;28;1508;-69
2023/01/04 14:03:24;;;;;;;;;;;;;;;;;;5095462;28;1258;-68
2023/01/04 14:05:50;;;;;;;;;;;;;;;;;;5113599;28;900;-68
2023/01/04 14:08:19;;;;;;;;;;;;;;;;;;5112844;28;959;-68
2023/01/04 14:10:44;;;;;;;;;;;;;;;;;;5113547;28;1898;-68
2023/01/04 14:13:14;;;;;;;;;;;;;;;;;;5095781;28;904;-68
2023/01/04 14:15:39;;;;;;;;;;;;;;;;;;5094645;28;1377;-68
2023/01/04 14:18:22;;;;;;;;;;;;;;;;;;5113250;28;833;-69
2023/01/04 14:20:47;;;;;;;;;;;;;;;;;;5093960;28;1155;-68
2023/01/04 14:23:34;;;;;;;;;;;;;;;;;;5093090;28;1321;-69
2023/01/04 14:25:59;;;;;;;;;;;;;;;;;;5094720;28;1219;-69
2023/01/04 14:28:33;;;;;;;;;;;;;;;;;;5112675;28;908;-69
2023/01/04 14:30:58;;;;;;;;;;;;;;;;;;5094350;28;1953;-68
2023/01/04 14:33:35;;;;;;;;;;;;;;;;;;5112729;28;1203;-68
2023/01/04 14:36:06;;;;;;;;;;;;;;;;;;5112477;28;824;-68
2023/01/04 14:38:36;;;;;;;;;;;;;;;;;;5093530;28;1215;-69
2023/01/04 14:41:17;;;;;;;;;;;;;;;;;;5112246;28;1123;-68
2023/01/04 14:43:47;;;;;;;;;;;;;;;;;;5100365;27;1274;-69
2023/01/04 14:46:12;;;;;;;;;;;;;;;;;;5115477;27;1186;-68
2023/01/04 14:48:38;;;;;;;;;;;;;;;;;;5135380;27;840;-69
2023/01/04 14:51:03;;;;;;;;;;;;;;;;;;5118351;27;1963;-69
2023/01/04 14:53:29;;;;;;;;;;;;;;;;;;5135763;27;1139;-68
2023/01/04 14:55:54;;;;;;;;;;;;;;;;;;5096781;28;1168;-70
2023/01/04 14:58:20;;;;;;;;;;;;;;;;;;5110752;28;1104;-70
2023/01/04 15:00:45;;;;;;;;;;;;;;;;;;5117618;27;1151;-70
2023/01/04 15:03:10;;;;;;;;;;;;;;;;;;5093743;28;1191;-70
2023/01/04 15:05:36;;;;;;;;;;;;;;;;;;5093738;28;1239;-69
2023/01/04 15:08:01;;;;;;;;;;;;;;;;;;5094268;28;845;-70
2023/01/04 15:10:27;;;;;;;;;;;;;;;;;;5093534;28;1945;-70
2023/01/04 15:12:54;;;;;;;;;;;;;;;;;;5112587;28;888;-68
2023/01/04 15:15:22;;;;;;;;;;;;;;;;;;5111922;28;868;-69
2023/01/04 15:17:47;;;;;;;;;;;;;;;;;;5112622;28;840;-69
2023/01/04 15:20:12;;;;;;;;;;;;;;;;;;5094203;28;1388;-71
2023/01/04 15:22:39;;;;;;;;;;;;;;;;;;5077430;28;1258;-69
2023/01/04 15:25:04;;;;;;;;;;;;;;;;;;5093810;28;1314;-70
2023/01/04 15:27:30;;;;;;;;;;;;;;;;;;5076631;28;1387;-69
2023/01/04 15:29:55;;;;;;;;;;;;;;;;;;5112579;28;1893;-72
2023/01/04 15:32:20;;;;;;;;;;;;;;;;;;5092877;28;1321;-71
2023/01/04 15:34:47;;;;;;;;;;;;;;;;;;5093308;28;829;-72
2023/01/04 15:37:12;;;;;;;;;;;;;;;;;;5111874;28;1086;-72
2023/01/04 15:39:38;;;;;;;;;;;;;;;;;;5076134;28;1171;-72
2023/01/04 15:44:46;;;;;;;;;;;;;;;;;;5111774;28;635;-71
2023/01/04 15:47:11;;;;;;;;;;;;;;;;;;5111662;28;904;-71
2023/01/04 15:49:37;;;;;;;;;;;;;;;;;;5076289;28;1180;-74
2023/01/04 15:52:02;;;;;;;;;;;;;;;;;;5093580;28;913;-70
2023/01/04 15:54:27;;;;;;;;;;;;;;;;;;5075786;28;1265;-70
2023/01/04 15:56:53;;;;;;;;;;;;;;;;;;5076001;28;1200;-71
2023/01/04 15:59:18;;;;;;;;;;;;;;;;;;5092933;28;1310;-71
2023/01/04 16:01:44;;;;;;;;;;;;;;;;;;5092812;28;1195;-69
2023/01/04 16:04:12;;;;;;;;;;;;;;;;;;5111375;28;852;-70
2023/01/04 16:06:37;;;;;;;;;;;;;;;;;;5075988;28;1275;-71
2023/01/04 16:09:03;;;;;;;;;;;;;;;;;;5111407;28;971;-71
2023/01/04 16:11:28;;;;;;;;;;;;;;;;;;5109356;28;1906;-70
2023/01/04 16:13:54;;;;;;;;;;;;;;;;;;5112271;28;1431;-71
2023/01/04 16:16:20;;;;;;;;;;;;;;;;;;5134610;27;1173;-70
2023/01/04 16:18:47;;;;;;;;;;;;;;;;;;5116676;27;1178;-69
2023/01/04 16:21:13;;;;;;;;;;;;;;;;;;5135553;27;816;-70
2023/01/04 16:23:39;;;;;;;;;;;;;;;;;;5116364;27;1328;-70
2023/01/04 16:26:08;;;;;;;;;;;;;;;;;;5099648;27;1430;-70
2023/01/04 16:28:34;;;;;;;;;;;;;;;;;;5135153;27;1091;-71
2023/01/04 16:30:59;;;;;;;;;;;;;;;;;;5135507;27;1970;-71
2023/01/04 16:33:25;;;;;;;;;;;;;;;;;;5135158;27;1518;-70
2023/01/04 16:36:04;;;;;;;;;;;;;;;;;;5116934;27;1412;-70
2023/01/04 16:38:29;;;;;;;;;;;;;;;;;;5116665;27;1290;-70
2023/01/04 16:40:56;;;;;;;;;;;;;;;;;;5099723;27;1222;-69
2023/01/04 16:43:21;;;;;;;;;;;;;;;;;;5116756;27;896;-69
2023/01/04 16:45:47;;;;;;;;;;;;;;;;;;5116329;27;1155;-70
2023/01/04 16:48:12;;;;;;;;;;;;;;;;;;5116874;27;1202;-70
2023/01/04 16:50:38;;;;;;;;;;;;;;;;;;5133971;27;1979;-69
2023/01/04 16:53:03;;;;;;;;;;;;;;;;;;5134630;27;1211;-69
2023/01/04 16:55:29;;;;;;;;;;;;;;;;;;5112664;27;1230;-69
2023/01/04 16:57:54;;;;;;;;;;;;;;;;;;5134323;27;754;-69
2023/01/04 17:00:19;;;;;;;;;;;;;;;;;;5134314;27;995;-70
2023/01/04 17:02:44;;;;;;;;;;;;;;;;;;5099029;27;1370;-69
2023/01/04 17:05:09;;;;;;;;;;;;;;;;;;5134858;27;947;-69
2023/01/04 17:07:35;;;;;;;;;;;;;;;;;;5134500;27;892;-70
2023/01/04 17:10:00;;;;;;;;;;;;;;;;;;5134301;27;1976;-70
2023/01/04 17:12:26;;;;;;;;;;;;;;;;;;5134032;27;919;-69
2023/01/04 17:14:51;;;;;;;;;;;;;;;;;;5115568;27;1324;-70
2023/01/04 17:17:16;;;;;;;;;;;;;;;;;;5098686;27;1210;-66
2023/01/04 17:19:42;;;;;;;;;;;;;;;;;;5115669;27;875;-66
2023/01/04 17:22:07;;;;;;;;;;;;;;;;;;5116070;27;805;-66
2023/01/04 17:24:32;;;;;;;;;;;;;;;;;;5115494;27;1227;-66
2023/01/04 17:26:58;;;;;;;;;;;;;;;;;;5133845;27;887;-67
2023/01/04 17:29:23;;;;;;;;;;;;;;;;;;5093876;28;1266;-67
2023/01/04 17:31:48;;;;;;;;;;;;;;;;;;5093053;28;1992;-67
2023/01/04 17:34:16;;;;;;;;;;;;;;;;;;5101170;27;1207;-67
2023/01/04 17:36:42;;;;;;;;;;;;;;;;;;5133971;27;844;-67
2023/01/04 17:39:07;;;;;;;;;;;;;;;;;;5134409;27;1273;-69
2023/01/04 17:41:33;;;;;;;;;;;;;;;;;;5116203;27;797;-67
2023/01/04 17:43:59;;;;;;;;;;;;;;;;;;5133776;27;778;-67
2023/01/04 17:46:26;;;;;;;;;;;;;;;;;;5134634;27;835;-67
2023/01/04 17:48:51;;;;;;;;;;;;;;;;;;5134264;27;888;-66
2023/01/04 17:51:21;;;;;;;;;;;;;;;;;;5115363;27;1980;-67
2023/01/04 17:53:46;;;;;;;;;;;;;;;;;;5115627;27;1591;-67
2023/01/04 17:56:13;;;;;;;;;;;;;;;;;;5134073;27;825;-67
2023/01/04 17:58:38;;;;;;;;;;;;;;;;;;5115736;27;1356;-67
2023/01/04 18:01:11;;;;;;;;;;;;;;;;;;5115459;27;1317;-67
2023/01/04 18:03:39;;;;;;;;;;;;;;;;;;5133705;27;935;-67
2023/01/04 18:06:05;;;;;;;;;;;;;;;;;;5133606;27;844;-68
2023/01/04 18:08:30;;;;;;;;;;;;;;;;;;5115023;27;899;-67